Bel Air Beach, Iowa
Current Conditions -  °F | °C
As of 3:35 PM on Thursday 18 Dec 2014 (Local Time) from KSLB Reporting Station
Overcast Overcast  
Wind Chill: 23°   Ceiling: 1400
Heat Index: 28°   Visibility: 10mi
Dew Point: 23°   Wind: 5mph
Humidity: 80%   Direction: 170°S
Pressure: 30.19"   Gusts: NA
Location:  42.674°N, 95.1635°W
Report Text: KSLB 182135Z AUTO 17004KT 10SM BKN014 OVC030 M02/M05 A3019 RMK AO2
Loading
Personal Weather Stations






























Interactive Weather Map New forecast layout! Learn more

10-Day Weather Forecast

Advertisements
Track Severe Weather on mobile